createdAt,value
2017-04-08T00:03:08.167Z,0
2017-04-08T00:08:04.673Z,0
2017-04-08T00:13:01.679Z,0
2017-04-08T00:17:58.248Z,0
2017-04-08T00:22:55.120Z,0
2017-04-08T00:27:51.318Z,0
2017-04-08T00:32:48.490Z,0
2017-04-08T00:37:45.019Z,0
2017-04-08T00:42:41.642Z,0
2017-04-08T00:47:38.220Z,0
2017-04-08T00:52:34.384Z,0
2017-04-08T00:57:31.045Z,0
2017-04-08T01:02:27.482Z,0
2017-04-08T01:07:24.053Z,0
2017-04-08T01:12:20.403Z,0
2017-04-08T01:17:16.934Z,0
2017-04-08T01:22:13.261Z,0
2017-04-08T01:27:09.865Z,0
2017-04-08T01:32:06.405Z,0
2017-04-08T01:37:02.467Z,0
2017-04-08T01:42:00.230Z,0
2017-04-08T01:46:56.372Z,0
2017-04-08T01:51:53.099Z,0
2017-04-08T01:56:49.990Z,0
2017-04-08T02:01:46.252Z,0
2017-04-08T02:06:42.967Z,0
2017-04-08T02:11:39.412Z,0
2017-04-08T02:16:35.771Z,0
2017-04-08T02:21:32.890Z,0
2017-04-08T02:26:29.332Z,0
2017-04-08T02:31:25.674Z,0
2017-04-08T02:36:22.114Z,0
2017-04-08T02:41:18.541Z,0
2017-04-08T02:46:15.038Z,0
2017-04-08T02:51:11.459Z,0
2017-04-08T02:56:07.922Z,0
2017-04-08T03:01:04.322Z,0
2017-04-08T03:06:00.727Z,0
2017-04-08T03:10:57.092Z,0
2017-04-08T03:15:53.692Z,0
2017-04-08T03:20:50.180Z,0
2017-04-08T03:25:46.848Z,0
2017-04-08T03:30:43.003Z,0
2017-04-08T03:35:39.638Z,0
2017-04-08T03:40:36.545Z,0
2017-04-08T03:45:32.945Z,0
2017-04-08T03:50:29.481Z,0
2017-04-08T03:55:28.564Z,0
2017-04-08T04:00:24.304Z,0
2017-04-08T04:05:21.024Z,0
2017-04-08T04:10:17.409Z,0
2017-04-08T04:15:14.425Z,0
2017-04-08T04:20:10.852Z,0
2017-04-08T04:25:07.452Z,4
2017-04-08T04:30:04.028Z,8
2017-04-08T04:35:00.769Z,16
2017-04-08T04:39:57.487Z,36
2017-04-08T04:44:54.032Z,60
2017-04-08T04:49:50.424Z,80
2017-04-08T04:54:46.800Z,116
2017-04-08T04:59:44.153Z,156
2017-04-08T05:04:40.361Z,216
2017-04-08T05:09:36.467Z,296
2017-04-08T05:14:33.471Z,384
2017-04-08T05:19:29.811Z,424
2017-04-08T05:24:26.288Z,476
2017-04-08T05:29:22.823Z,660
2017-04-08T05:34:19.264Z,724
2017-04-08T05:39:15.775Z,740
2017-04-08T05:44:12.072Z,988
2017-04-08T05:49:08.625Z,936
2017-04-08T05:54:05.293Z,1204
2017-04-08T05:59:01.945Z,1368
2017-04-08T06:03:58.232Z,1692
2017-04-08T06:08:55.199Z,1576
2017-04-08T06:13:52.184Z,2088
2017-04-08T06:18:48.442Z,1880
2017-04-08T06:23:45.405Z,2452
2017-04-08T06:28:42.105Z,2372
2017-04-08T06:33:38.731Z,2764
2017-04-08T06:38:35.129Z,2780
2017-04-08T06:43:32.253Z,2796
2017-04-08T06:48:29.089Z,3584
2017-04-08T06:53:26.071Z,3348
2017-04-08T06:58:22.704Z,3792
2017-04-08T07:03:19.305Z,4576
2017-04-08T07:08:15.763Z,4304
2017-04-08T07:13:12.236Z,4764
2017-04-08T07:18:08.876Z,4944
2017-04-08T07:23:05.885Z,5688
2017-04-08T07:28:03.261Z,5672
2017-04-08T07:32:59.866Z,6396
2017-04-08T07:37:56.515Z,6708
2017-04-08T07:42:53.067Z,5512
2017-04-08T07:47:49.584Z,6172
2017-04-08T07:52:46.175Z,6896
2017-04-08T07:57:43.134Z,7468
2017-04-08T08:02:39.885Z,8424
2017-04-08T08:07:37.262Z,8288
2017-04-08T08:12:33.935Z,9408
2017-04-08T08:17:30.402Z,9048
2017-04-08T08:22:27.075Z,9424
2017-04-08T08:27:24.612Z,9408
2017-04-08T08:32:21.098Z,10116
2017-04-08T08:37:18.311Z,10472
2017-04-08T08:42:15.386Z,10324
2017-04-08T08:47:12.277Z,10036
2017-04-08T08:52:08.698Z,10012
2017-04-08T08:57:05.077Z,10524
2017-04-08T09:02:01.458Z,10656
2017-04-08T09:06:58.045Z,11792
2017-04-08T09:11:55.394Z,13056
2017-04-08T09:16:52.373Z,13460
2017-04-08T09:21:49.110Z,12664
2017-04-08T09:26:47.296Z,12060
2017-04-08T09:31:43.468Z,12000
2017-04-08T09:36:40.363Z,11884
2017-04-08T09:41:36.860Z,10652
2017-04-08T09:46:33.379Z,11128
2017-04-08T09:51:30.010Z,11972
2017-04-08T09:56:26.990Z,12408
2017-04-08T10:01:24.087Z,12148
2017-04-08T10:06:21.531Z,13148
2017-04-08T10:11:18.629Z,12440
2017-04-08T10:16:15.449Z,13260
2017-04-08T10:21:12.152Z,16352
2017-04-08T10:26:08.981Z,11760
2017-04-08T10:31:05.675Z,13684
2017-04-08T10:36:02.255Z,11028
2017-04-08T10:40:59.519Z,17664
2017-04-08T10:45:57.300Z,15840
2017-04-08T10:50:54.029Z,16092
2017-04-08T10:55:50.712Z,16040
2017-04-08T11:00:47.763Z,14640
2017-04-08T11:05:44.263Z,13708
2017-04-08T11:10:40.475Z,34528
2017-04-08T11:15:37.568Z,21600
2017-04-08T11:20:34.097Z,9740
2017-04-08T11:25:31.060Z,9348
2017-04-08T11:30:27.632Z,11008
2017-04-08T11:35:23.912Z,12572
2017-04-08T11:40:20.231Z,10560
2017-04-08T11:45:16.596Z,21536
2017-04-08T11:50:15.201Z,22592
2017-04-08T11:55:12.217Z,14496
2017-04-08T12:00:08.390Z,13708
2017-04-08T12:05:05.000Z,12728
2017-04-08T12:10:02.868Z,17216
2017-04-08T12:14:59.157Z,11148
2017-04-08T12:19:55.615Z,9928
2017-04-08T12:24:52.371Z,38400
2017-04-08T12:29:50.957Z,19232
2017-04-08T12:34:47.171Z,15376
2017-04-08T12:39:42.959Z,12312
2017-04-08T12:44:39.352Z,13136
2017-04-08T12:49:35.629Z,10604
2017-04-08T12:54:32.446Z,9708
2017-04-08T12:59:29.307Z,9200
2017-04-08T13:04:26.155Z,9128
2017-04-08T13:09:23.497Z,12396
2017-04-08T13:14:20.516Z,12060
2017-04-08T13:19:16.611Z,10856
2017-04-08T13:24:13.771Z,10504
2017-04-08T13:29:10.437Z,10660
2017-04-08T13:34:07.171Z,13004
2017-04-08T13:39:04.035Z,13560
2017-04-08T13:44:00.364Z,13412
2017-04-08T13:48:57.520Z,13068
2017-04-08T13:53:55.663Z,12092
2017-04-08T13:58:51.930Z,12896
2017-04-08T14:03:49.158Z,12388
2017-04-08T14:08:45.955Z,12004
2017-04-08T14:13:42.456Z,10600
2017-04-08T14:18:39.334Z,9476
2017-04-08T14:23:37.095Z,11076
2017-04-08T14:28:33.280Z,11184
2017-04-08T14:33:30.043Z,9716
2017-04-08T14:38:26.227Z,8532
2017-04-08T14:43:22.836Z,8564
2017-04-08T14:48:20.045Z,8060
2017-04-08T14:53:16.521Z,8532
2017-04-08T14:58:12.970Z,8444
2017-04-08T15:03:09.610Z,9144
2017-04-08T15:08:06.818Z,8560
2017-04-08T15:13:03.374Z,7772
2017-04-08T15:17:59.960Z,6100
2017-04-08T15:22:56.242Z,5240
2017-04-08T15:27:52.457Z,4728
2017-04-08T15:32:48.449Z,4368
2017-04-08T15:37:45.717Z,4116
2017-04-08T15:42:42.227Z,4000
2017-04-08T15:47:38.587Z,3796
2017-04-08T15:52:35.039Z,3644
2017-04-08T15:57:32.173Z,3580
2017-04-08T16:02:28.516Z,3736
2017-04-08T16:07:25.010Z,3404
2017-04-08T16:12:21.361Z,3284
2017-04-08T16:17:17.801Z,3100
2017-04-08T16:22:14.167Z,2960
2017-04-08T16:27:10.575Z,2836
2017-04-08T16:32:07.235Z,2716
2017-04-08T16:37:04.180Z,2584
2017-04-08T16:42:00.892Z,2440
2017-04-08T16:46:57.376Z,2324
2017-04-08T16:51:53.919Z,2192
2017-04-08T16:56:51.151Z,2072
2017-04-08T17:01:47.426Z,1968
2017-04-08T17:06:44.150Z,1904
2017-04-08T17:11:41.008Z,1720
2017-04-08T17:16:37.923Z,1600
2017-04-08T17:21:35.006Z,1468
2017-04-08T17:26:31.325Z,1336
2017-04-08T17:31:27.740Z,1208
2017-04-08T17:36:24.235Z,1064
2017-04-08T17:41:20.926Z,920
2017-04-08T17:46:17.347Z,784
2017-04-08T17:51:13.682Z,656
2017-04-08T17:56:10.220Z,528
2017-04-08T18:01:07.065Z,412
2017-04-08T18:06:03.619Z,308
2017-04-08T18:10:59.927Z,216
2017-04-08T18:15:56.927Z,140
2017-04-08T18:20:53.145Z,84
2017-04-08T18:25:49.544Z,44
2017-04-08T18:30:45.971Z,24
2017-04-08T18:35:42.565Z,12
2017-04-08T18:40:38.596Z,4
2017-04-08T18:45:35.190Z,4
2017-04-08T18:50:32.311Z,0
2017-04-08T18:55:28.520Z,0
2017-04-08T19:00:25.021Z,0
2017-04-08T19:05:21.509Z,0
2017-04-08T19:10:18.050Z,0
2017-04-08T19:15:14.474Z,0
2017-04-08T19:20:10.958Z,0
2017-04-08T19:25:07.550Z,0
2017-04-08T19:30:04.511Z,0
2017-04-08T19:35:00.490Z,0
2017-04-08T19:39:56.972Z,0
2017-04-08T19:44:53.509Z,0
2017-04-08T19:49:49.847Z,0
2017-04-08T19:54:46.186Z,0
2017-04-08T19:59:42.589Z,0
2017-04-08T20:04:38.752Z,0
2017-04-08T20:09:34.968Z,0
2017-04-08T20:14:31.757Z,0
2017-04-08T20:19:28.040Z,0
2017-04-08T20:24:25.425Z,0
2017-04-08T20:29:21.361Z,0
2017-04-08T20:34:17.773Z,0
2017-04-08T20:39:14.144Z,0
2017-04-08T20:44:10.355Z,0
2017-04-08T20:49:06.361Z,0
2017-04-08T20:54:02.998Z,0
2017-04-08T20:58:59.583Z,0
2017-04-08T21:03:56.129Z,0
2017-04-08T21:08:52.513Z,0
2017-04-08T21:13:49.093Z,0
2017-04-08T21:18:45.343Z,0
2017-04-08T21:23:41.651Z,0
2017-04-08T21:28:38.705Z,0
2017-04-08T21:33:34.799Z,0
2017-04-08T21:38:31.225Z,0
2017-04-08T21:43:27.744Z,0
2017-04-08T21:48:24.085Z,0
2017-04-08T21:53:20.629Z,0
2017-04-08T21:58:17.427Z,0
2017-04-08T22:03:13.719Z,0
2017-04-08T22:08:10.050Z,0
2017-04-08T22:13:06.599Z,0
2017-04-08T22:18:03.129Z,0
2017-04-08T22:22:59.504Z,0
2017-04-08T22:27:56.264Z,0
2017-04-08T22:32:52.553Z,0
2017-04-08T22:37:49.049Z,0
2017-04-08T22:42:45.571Z,0
2017-04-08T22:47:42.196Z,0
2017-04-08T22:52:38.758Z,0
2017-04-08T22:57:35.153Z,0
2017-04-08T23:02:31.299Z,0
2017-04-08T23:07:27.962Z,0
2017-04-08T23:12:24.447Z,0
2017-04-08T23:17:20.840Z,0
2017-04-08T23:22:17.555Z,0
2017-04-08T23:27:14.018Z,0
2017-04-08T23:32:10.351Z,0
2017-04-08T23:37:06.809Z,0
2017-04-08T23:42:02.956Z,0
2017-04-08T23:46:59.279Z,0
2017-04-08T23:51:55.982Z,0
2017-04-08T23:56:52.355Z,0
